sensor_id;sensor_type;location;lat;lon;timestamp;P1;durP1;ratioP1;P2;durP2;ratioP2
73382;SDS011;61600;48.126;11.542;2023-06-19T00:02:20;11.25;;;7.90;;
73382;SDS011;61600;48.126;11.542;2023-06-19T00:04:46;10.88;;;7.65;;
73382;SDS011;61600;48.126;11.542;2023-06-19T00:07:12;11.05;;;7.03;;
73382;SDS011;61600;48.126;11.542;2023-06-19T00:09:38;9.43;;;7.28;;
73382;SDS011;61600;48.126;11.542;2023-06-19T00:12:04;9.80;;;7.30;;
73382;SDS011;61600;48.126;11.542;2023-06-19T00:14:30;10.70;;;7.43;;
73382;SDS011;61600;48.126;11.542;2023-06-19T00:16:55;12.05;;;7.55;;
73382;SDS011;61600;48.126;11.542;2023-06-19T00:19:22;12.70;;;7.43;;
73382;SDS011;61600;48.126;11.542;2023-06-19T00:21:48;9.98;;;7.00;;
73382;SDS011;61600;48.126;11.542;2023-06-19T00:24:14;11.57;;;8.05;;
73382;SDS011;61600;48.126;11.542;2023-06-19T00:26:39;9.68;;;7.43;;
73382;SDS011;61600;48.126;11.542;2023-06-19T00:29:05;9.40;;;6.90;;
73382;SDS011;61600;48.126;11.542;2023-06-19T00:31:32;11.13;;;7.07;;
73382;SDS011;61600;48.126;11.542;2023-06-19T00:33:58;10.20;;;7.00;;
73382;SDS011;61600;48.126;11.542;2023-06-19T00:36:23;9.60;;;7.45;;
73382;SDS011;61600;48.126;11.542;2023-06-19T00:38:51;11.57;;;6.70;;
73382;SDS011;61600;48.126;11.542;2023-06-19T00:41:17;9.40;;;6.90;;
73382;SDS011;61600;48.126;11.542;2023-06-19T00:43:43;10.32;;;6.40;;
73382;SDS011;61600;48.126;11.542;2023-06-19T00:46:09;10.50;;;6.72;;
73382;SDS011;61600;48.126;11.542;2023-06-19T00:48:36;12.88;;;7.35;;
73382;SDS011;61600;48.126;11.542;2023-06-19T00:51:02;9.60;;;6.93;;
73382;SDS011;61600;48.126;11.542;2023-06-19T00:53:28;9.27;;;6.90;;
73382;SDS011;61600;48.126;11.542;2023-06-19T00:55:56;9.98;;;6.72;;
73382;SDS011;61600;48.126;11.542;2023-06-19T00:58:23;10.45;;;7.38;;
73382;SDS011;61600;48.126;11.542;2023-06-19T01:00:49;9.77;;;6.95;;
73382;SDS011;61600;48.126;11.542;2023-06-19T01:03:15;10.30;;;7.00;;
73382;SDS011;61600;48.126;11.542;2023-06-19T01:05:41;10.38;;;6.90;;
73382;SDS011;61600;48.126;11.542;2023-06-19T01:08:24;9.98;;;6.97;;
73382;SDS011;61600;48.126;11.542;2023-06-19T01:10:54;8.75;;;6.53;;
73382;SDS011;61600;48.126;11.542;2023-06-19T01:13:39;8.50;;;6.50;;
73382;SDS011;61600;48.126;11.542;2023-06-19T01:16:06;10.00;;;6.75;;
73382;SDS011;61600;48.126;11.542;2023-06-19T01:18:33;10.27;;;6.72;;
73382;SDS011;61600;48.126;11.542;2023-06-19T01:21:20;9.05;;;6.63;;
73382;SDS011;61600;48.126;11.542;2023-06-19T01:23:45;11.38;;;6.63;;
73382;SDS011;61600;48.126;11.542;2023-06-19T01:26:12;8.85;;;6.18;;
73382;SDS011;61600;48.126;11.542;2023-06-19T01:28:39;13.23;;;7.38;;
73382;SDS011;61600;48.126;11.542;2023-06-19T01:31:11;11.32;;;7.10;;
73382;SDS011;61600;48.126;11.542;2023-06-19T01:33:40;8.95;;;5.97;;
73382;SDS011;61600;48.126;11.542;2023-06-19T01:36:08;11.07;;;6.72;;
73382;SDS011;61600;48.126;11.542;2023-06-19T01:38:36;12.00;;;7.40;;
73382;SDS011;61600;48.126;11.542;2023-06-19T01:41:03;9.52;;;6.93;;
73382;SDS011;61600;48.126;11.542;2023-06-19T01:43:32;10.48;;;6.95;;
73382;SDS011;61600;48.126;11.542;2023-06-19T01:45:58;9.55;;;6.68;;
73382;SDS011;61600;48.126;11.542;2023-06-19T01:48:26;8.25;;;7.00;;
73382;SDS011;61600;48.126;11.542;2023-06-19T01:50:51;9.27;;;6.75;;
73382;SDS011;61600;48.126;11.542;2023-06-19T01:53:17;8.55;;;6.38;;
73382;SDS011;61600;48.126;11.542;2023-06-19T01:55:43;11.77;;;7.03;;
73382;SDS011;61600;48.126;11.542;2023-06-19T01:58:09;8.05;;;6.57;;
73382;SDS011;61600;48.126;11.542;2023-06-19T02:00:35;9.43;;;6.78;;
73382;SDS011;61600;48.126;11.542;2023-06-19T02:03:01;9.73;;;7.15;;
73382;SDS011;61600;48.126;11.542;2023-06-19T02:05:27;10.52;;;6.95;;
73382;SDS011;61600;48.126;11.542;2023-06-19T02:07:53;9.90;;;6.63;;
73382;SDS011;61600;48.126;11.542;2023-06-19T02:10:19;10.38;;;7.20;;
73382;SDS011;61600;48.126;11.542;2023-06-19T02:12:45;12.43;;;6.95;;
73382;SDS011;61600;48.126;11.542;2023-06-19T02:15:10;9.43;;;7.32;;
73382;SDS011;61600;48.126;11.542;2023-06-19T02:17:36;10.48;;;6.65;;
73382;SDS011;61600;48.126;11.542;2023-06-19T02:20:02;8.68;;;6.70;;
73382;SDS011;61600;48.126;11.542;2023-06-19T02:22:31;8.93;;;6.47;;
73382;SDS011;61600;48.126;11.542;2023-06-19T02:24:57;10.25;;;7.28;;
73382;SDS011;61600;48.126;11.542;2023-06-19T02:27:23;10.43;;;6.53;;
73382;SDS011;61600;48.126;11.542;2023-06-19T02:32:15;10.27;;;6.70;;
73382;SDS011;61600;48.126;11.542;2023-06-19T02:34:41;9.55;;;6.97;;
73382;SDS011;61600;48.126;11.542;2023-06-19T02:37:06;9.50;;;7.00;;
73382;SDS011;61600;48.126;11.542;2023-06-19T02:39:33;12.90;;;6.80;;
73382;SDS011;61600;48.126;11.542;2023-06-19T02:41:59;10.50;;;7.05;;
73382;SDS011;61600;48.126;11.542;2023-06-19T02:44:25;10.52;;;6.72;;
73382;SDS011;61600;48.126;11.542;2023-06-19T02:46:51;10.25;;;7.47;;
73382;SDS011;61600;48.126;11.542;2023-06-19T02:49:16;12.52;;;7.63;;
73382;SDS011;61600;48.126;11.542;2023-06-19T02:51:42;13.55;;;7.25;;
73382;SDS011;61600;48.126;11.542;2023-06-19T02:54:08;12.90;;;7.63;;
73382;SDS011;61600;48.126;11.542;2023-06-19T02:56:33;10.48;;;7.10;;
73382;SDS011;61600;48.126;11.542;2023-06-19T02:58:59;11.10;;;7.28;;
73382;SDS011;61600;48.126;11.542;2023-06-19T03:01:25;9.48;;;7.45;;
73382;SDS011;61600;48.126;11.542;2023-06-19T03:03:51;11.27;;;7.07;;
73382;SDS011;61600;48.126;11.542;2023-06-19T03:06:17;10.43;;;7.60;;
73382;SDS011;61600;48.126;11.542;2023-06-19T03:08:43;11.57;;;7.10;;
73382;SDS011;61600;48.126;11.542;2023-06-19T03:11:09;10.13;;;7.57;;
73382;SDS011;61600;48.126;11.542;2023-06-19T03:13:52;8.73;;;7.00;;
73382;SDS011;61600;48.126;11.542;2023-06-19T03:16:18;9.68;;;7.25;;
73382;SDS011;61600;48.126;11.542;2023-06-19T03:18:45;10.80;;;7.30;;
73382;SDS011;61600;48.126;11.542;2023-06-19T03:23:37;10.63;;;7.55;;
73382;SDS011;61600;48.126;11.542;2023-06-19T03:26:03;11.38;;;7.28;;
73382;SDS011;61600;48.126;11.542;2023-06-19T03:28:29;11.48;;;7.43;;
73382;SDS011;61600;48.126;11.542;2023-06-19T03:30:55;10.82;;;7.40;;
73382;SDS011;61600;48.126;11.542;2023-06-19T03:33:20;9.65;;;7.38;;
73382;SDS011;61600;48.126;11.542;2023-06-19T03:35:46;11.07;;;7.50;;
73382;SDS011;61600;48.126;11.542;2023-06-19T03:38:12;11.00;;;7.53;;
73382;SDS011;61600;48.126;11.542;2023-06-19T03:40:39;10.18;;;7.47;;
73382;SDS011;61600;48.126;11.542;2023-06-19T03:43:05;10.65;;;7.50;;
73382;SDS011;61600;48.126;11.542;2023-06-19T03:45:30;10.20;;;7.65;;
73382;SDS011;61600;48.126;11.542;2023-06-19T03:47:56;11.00;;;7.50;;
73382;SDS011;61600;48.126;11.542;2023-06-19T03:50:22;10.13;;;7.32;;
73382;SDS011;61600;48.126;11.542;2023-06-19T03:52:49;10.13;;;7.22;;
73382;SDS011;61600;48.126;11.542;2023-06-19T03:55:14;11.23;;;7.78;;
73382;SDS011;61600;48.126;11.542;2023-06-19T03:57:40;11.38;;;7.28;;
73382;SDS011;61600;48.126;11.542;2023-06-19T04:00:06;9.25;;;7.30;;
73382;SDS011;61600;48.126;11.542;2023-06-19T04:02:33;12.13;;;7.28;;
73382;SDS011;61600;48.126;11.542;2023-06-19T04:07:25;9.85;;;6.82;;
73382;SDS011;61600;48.126;11.542;2023-06-19T04:09:51;10.27;;;7.32;;
73382;SDS011;61600;48.126;11.542;2023-06-19T04:12:16;8.63;;;6.75;;
73382;SDS011;61600;48.126;11.542;2023-06-19T04:14:42;9.82;;;6.88;;
73382;SDS011;61600;48.126;11.542;2023-06-19T04:17:08;11.45;;;7.97;;
73382;SDS011;61600;48.126;11.542;2023-06-19T04:19:34;9.77;;;7.40;;
73382;SDS011;61600;48.126;11.542;2023-06-19T04:22:00;12.48;;;6.55;;
73382;SDS011;61600;48.126;11.542;2023-06-19T04:24:25;10.90;;;7.45;;
73382;SDS011;61600;48.126;11.542;2023-06-19T04:26:51;9.25;;;6.93;;
73382;SDS011;61600;48.126;11.542;2023-06-19T04:31:46;8.88;;;6.70;;
73382;SDS011;61600;48.126;11.542;2023-06-19T04:34:13;10.18;;;6.95;;
73382;SDS011;61600;48.126;11.542;2023-06-19T04:36:41;11.18;;;7.75;;
73382;SDS011;61600;48.126;11.542;2023-06-19T04:39:06;10.60;;;7.53;;
73382;SDS011;61600;48.126;11.542;2023-06-19T04:41:32;9.15;;;6.93;;
73382;SDS011;61600;48.126;11.542;2023-06-19T04:43:58;12.65;;;7.78;;
73382;SDS011;61600;48.126;11.542;2023-06-19T04:46:25;11.95;;;8.07;;
73382;SDS011;61600;48.126;11.542;2023-06-19T04:48:51;11.75;;;8.02;;
73382;SDS011;61600;48.126;11.542;2023-06-19T04:51:17;14.43;;;8.30;;
73382;SDS011;61600;48.126;11.542;2023-06-19T04:53:46;12.05;;;7.57;;
73382;SDS011;61600;48.126;11.542;2023-06-19T04:56:14;15.95;;;7.97;;
73382;SDS011;61600;48.126;11.542;2023-06-19T04:58:40;11.25;;;7.97;;
73382;SDS011;61600;48.126;11.542;2023-06-19T05:01:14;13.20;;;7.65;;
73382;SDS011;61600;48.126;11.542;2023-06-19T05:03:41;11.38;;;7.80;;
73382;SDS011;61600;48.126;11.542;2023-06-19T05:06:08;11.75;;;7.35;;
73382;SDS011;61600;48.126;11.542;2023-06-19T05:08:34;11.45;;;7.60;;
73382;SDS011;61600;48.126;11.542;2023-06-19T05:10:59;12.10;;;7.70;;
73382;SDS011;61600;48.126;11.542;2023-06-19T05:13:25;11.65;;;7.38;;
73382;SDS011;61600;48.126;11.542;2023-06-19T05:15:51;9.57;;;7.25;;
73382;SDS011;61600;48.126;11.542;2023-06-19T05:18:17;11.20;;;8.05;;
73382;SDS011;61600;48.126;11.542;2023-06-19T05:20:43;11.57;;;7.20;;
73382;SDS011;61600;48.126;11.542;2023-06-19T05:23:10;10.25;;;7.68;;
73382;SDS011;61600;48.126;11.542;2023-06-19T05:25:36;13.18;;;8.00;;
73382;SDS011;61600;48.126;11.542;2023-06-19T05:28:01;12.95;;;7.95;;
73382;SDS011;61600;48.126;11.542;2023-06-19T05:30:27;15.40;;;8.40;;
73382;SDS011;61600;48.126;11.542;2023-06-19T05:32:53;12.57;;;8.20;;
73382;SDS011;61600;48.126;11.542;2023-06-19T05:35:19;11.50;;;7.05;;
73382;SDS011;61600;48.126;11.542;2023-06-19T05:37:46;13.07;;;7.70;;
73382;SDS011;61600;48.126;11.542;2023-06-19T05:40:12;10.50;;;7.18;;
73382;SDS011;61600;48.126;11.542;2023-06-19T05:42:39;9.75;;;6.53;;
73382;SDS011;61600;48.126;11.542;2023-06-19T05:45:05;10.35;;;6.95;;
73382;SDS011;61600;48.126;11.542;2023-06-19T05:47:31;15.60;;;6.93;;
73382;SDS011;61600;48.126;11.542;2023-06-19T05:49:57;9.50;;;6.63;;
73382;SDS011;61600;48.126;11.542;2023-06-19T05:52:24;11.35;;;7.32;;
73382;SDS011;61600;48.126;11.542;2023-06-19T05:54:50;11.80;;;7.20;;
73382;SDS011;61600;48.126;11.542;2023-06-19T05:57:16;11.43;;;6.88;;
73382;SDS011;61600;48.126;11.542;2023-06-19T05:59:48;11.38;;;7.43;;
73382;SDS011;61600;48.126;11.542;2023-06-19T06:02:14;15.60;;;7.95;;
73382;SDS011;61600;48.126;11.542;2023-06-19T06:04:40;11.00;;;6.95;;
73382;SDS011;61600;48.126;11.542;2023-06-19T06:07:08;10.50;;;6.90;;
73382;SDS011;61600;48.126;11.542;2023-06-19T06:09:33;16.88;;;6.70;;
73382;SDS011;61600;48.126;11.542;2023-06-19T06:11:59;11.20;;;7.07;;
73382;SDS011;61600;48.126;11.542;2023-06-19T06:14:26;13.75;;;7.00;;
73382;SDS011;61600;48.126;11.542;2023-06-19T06:16:52;11.55;;;6.07;;
73382;SDS011;61600;48.126;11.542;2023-06-19T06:21:45;11.20;;;6.30;;
73382;SDS011;61600;48.126;11.542;2023-06-19T06:24:11;11.65;;;6.55;;
73382;SDS011;61600;48.126;11.542;2023-06-19T06:26:37;9.55;;;6.63;;
73382;SDS011;61600;48.126;11.542;2023-06-19T06:29:03;9.07;;;5.85;;
73382;SDS011;61600;48.126;11.542;2023-06-19T06:31:29;8.88;;;6.30;;
73382;SDS011;61600;48.126;11.542;2023-06-19T06:33:54;9.13;;;6.53;;
73382;SDS011;61600;48.126;11.542;2023-06-19T06:36:20;11.80;;;6.68;;
73382;SDS011;61600;48.126;11.542;2023-06-19T06:38:46;9.40;;;6.20;;
73382;SDS011;61600;48.126;11.542;2023-06-19T06:41:12;11.35;;;6.03;;
73382;SDS011;61600;48.126;11.542;2023-06-19T06:43:39;11.60;;;6.03;;
73382;SDS011;61600;48.126;11.542;2023-06-19T06:46:08;8.93;;;5.90;;
73382;SDS011;61600;48.126;11.542;2023-06-19T06:48:34;10.55;;;5.80;;
73382;SDS011;61600;48.126;11.542;2023-06-19T06:51:00;10.60;;;6.35;;
73382;SDS011;61600;48.126;11.542;2023-06-19T06:53:27;8.73;;;5.93;;
73382;SDS011;61600;48.126;11.542;2023-06-19T06:55:54;8.20;;;5.05;;
73382;SDS011;61600;48.126;11.542;2023-06-19T06:58:20;8.95;;;5.60;;
73382;SDS011;61600;48.126;11.542;2023-06-19T07:00:46;7.32;;;5.30;;
73382;SDS011;61600;48.126;11.542;2023-06-19T07:03:13;9.35;;;5.05;;
73382;SDS011;61600;48.126;11.542;2023-06-19T07:05:38;9.18;;;6.05;;
73382;SDS011;61600;48.126;11.542;2023-06-19T07:08:04;10.93;;;5.82;;
73382;SDS011;61600;48.126;11.542;2023-06-19T07:10:30;7.30;;;5.10;;
73382;SDS011;61600;48.126;11.542;2023-06-19T07:12:56;7.70;;;4.88;;
73382;SDS011;61600;48.126;11.542;2023-06-19T07:15:22;8.75;;;5.47;;
73382;SDS011;61600;48.126;11.542;2023-06-19T07:17:48;10.15;;;5.97;;
73382;SDS011;61600;48.126;11.542;2023-06-19T07:20:14;8.40;;;5.55;;
73382;SDS011;61600;48.126;11.542;2023-06-19T07:22:40;8.48;;;4.82;;
73382;SDS011;61600;48.126;11.542;2023-06-19T07:25:07;6.88;;;5.35;;
73382;SDS011;61600;48.126;11.542;2023-06-19T07:27:35;8.38;;;5.30;;
73382;SDS011;61600;48.126;11.542;2023-06-19T07:30:01;7.75;;;5.40;;
73382;SDS011;61600;48.126;11.542;2023-06-19T07:32:27;5.82;;;4.72;;
73382;SDS011;61600;48.126;11.542;2023-06-19T07:34:53;8.18;;;4.93;;
73382;SDS011;61600;48.126;11.542;2023-06-19T07:37:19;7.25;;;4.47;;
73382;SDS011;61600;48.126;11.542;2023-06-19T07:39:46;10.48;;;4.30;;
73382;SDS011;61600;48.126;11.542;2023-06-19T07:42:13;7.35;;;4.75;;
73382;SDS011;61600;48.126;11.542;2023-06-19T07:44:40;5.75;;;4.53;;
73382;SDS011;61600;48.126;11.542;2023-06-19T07:47:08;8.75;;;4.55;;
73382;SDS011;61600;48.126;11.542;2023-06-19T07:49:34;7.65;;;4.50;;
73382;SDS011;61600;48.126;11.542;2023-06-19T07:52:01;6.32;;;3.75;;
73382;SDS011;61600;48.126;11.542;2023-06-19T07:54:27;7.57;;;4.20;;
73382;SDS011;61600;48.126;11.542;2023-06-19T07:56:53;7.85;;;4.07;;
73382;SDS011;61600;48.126;11.542;2023-06-19T07:59:19;9.38;;;4.28;;
73382;SDS011;61600;48.126;11.542;2023-06-19T08:01:46;7.25;;;4.32;;
73382;SDS011;61600;48.126;11.542;2023-06-19T08:04:11;5.93;;;3.97;;
73382;SDS011;61600;48.126;11.542;2023-06-19T08:06:37;8.20;;;3.97;;
73382;SDS011;61600;48.126;11.542;2023-06-19T08:09:03;6.13;;;4.47;;
73382;SDS011;61600;48.126;11.542;2023-06-19T08:11:29;5.53;;;4.03;;
73382;SDS011;61600;48.126;11.542;2023-06-19T08:13:55;8.82;;;4.47;;
73382;SDS011;61600;48.126;11.542;2023-06-19T08:16:21;5.85;;;4.38;;
73382;SDS011;61600;48.126;11.542;2023-06-19T08:18:47;8.05;;;4.10;;
73382;SDS011;61600;48.126;11.542;2023-06-19T08:21:13;5.43;;;4.00;;
73382;SDS011;61600;48.126;11.542;2023-06-19T08:23:39;8.63;;;3.97;;
73382;SDS011;61600;48.126;11.542;2023-06-19T08:26:05;10.10;;;4.10;;
73382;SDS011;61600;48.126;11.542;2023-06-19T08:28:33;8.35;;;4.30;;
73382;SDS011;61600;48.126;11.542;2023-06-19T08:30:59;5.93;;;4.15;;
73382;SDS011;61600;48.126;11.542;2023-06-19T08:33:25;7.15;;;4.10;;
73382;SDS011;61600;48.126;11.542;2023-06-19T08:35:51;8.07;;;4.57;;
73382;SDS011;61600;48.126;11.542;2023-06-19T08:38:18;9.13;;;5.00;;
73382;SDS011;61600;48.126;11.542;2023-06-19T08:43:10;6.03;;;4.30;;
73382;SDS011;61600;48.126;11.542;2023-06-19T08:45:37;7.82;;;4.57;;
73382;SDS011;61600;48.126;11.542;2023-06-19T08:48:03;5.72;;;4.43;;
73382;SDS011;61600;48.126;11.542;2023-06-19T08:50:30;6.43;;;4.20;;
73382;SDS011;61600;48.126;11.542;2023-06-19T08:52:57;7.45;;;4.35;;
73382;SDS011;61600;48.126;11.542;2023-06-19T08:55:23;7.80;;;3.88;;
73382;SDS011;61600;48.126;11.542;2023-06-19T08:57:50;7.75;;;4.45;;
73382;SDS011;61600;48.126;11.542;2023-06-19T09:00:24;6.35;;;4.55;;
73382;SDS011;61600;48.126;11.542;2023-06-19T09:03:03;6.88;;;4.35;;
73382;SDS011;61600;48.126;11.542;2023-06-19T09:05:29;8.95;;;3.92;;
73382;SDS011;61600;48.126;11.542;2023-06-19T09:07:55;5.18;;;3.55;;
73382;SDS011;61600;48.126;11.542;2023-06-19T09:10:24;4.40;;;3.10;;
73382;SDS011;61600;48.126;11.542;2023-06-19T09:12:59;4.95;;;3.15;;
73382;SDS011;61600;48.126;11.542;2023-06-19T09:15:27;6.85;;;3.10;;
73382;SDS011;61600;48.126;11.542;2023-06-19T09:18:07;4.78;;;3.55;;
73382;SDS011;61600;48.126;11.542;2023-06-19T09:20:35;7.80;;;3.40;;
73382;SDS011;61600;48.126;11.542;2023-06-19T09:23:10;5.55;;;3.88;;
73382;SDS011;61600;48.126;11.542;2023-06-19T09:25:47;5.75;;;3.55;;
73382;SDS011;61600;48.126;11.542;2023-06-19T09:28:23;7.90;;;3.72;;
73382;SDS011;61600;48.126;11.542;2023-06-19T09:33:24;7.30;;;3.85;;
73382;SDS011;61600;48.126;11.542;2023-06-19T09:35:51;7.18;;;3.63;;
73382;SDS011;61600;48.126;11.542;2023-06-19T09:38:19;8.00;;;4.05;;
73382;SDS011;61600;48.126;11.542;2023-06-19T09:40:49;8.15;;;3.75;;
73382;SDS011;61600;48.126;11.542;2023-06-19T09:43:39;6.30;;;4.15;;
73382;SDS011;61600;48.126;11.542;2023-06-19T09:46:05;5.88;;;4.18;;
73382;SDS011;61600;48.126;11.542;2023-06-19T09:48:33;5.53;;;3.83;;
73382;SDS011;61600;48.126;11.542;2023-06-19T09:51:03;5.38;;;3.97;;
73382;SDS011;61600;48.126;11.542;2023-06-19T09:53:36;7.70;;;4.20;;
73382;SDS011;61600;48.126;11.542;2023-06-19T09:56:03;8.35;;;4.30;;
73382;SDS011;61600;48.126;11.542;2023-06-19T09:58:28;6.03;;;4.22;;
73382;SDS011;61600;48.126;11.542;2023-06-19T10:00:55;18.83;;;5.18;;
73382;SDS011;61600;48.126;11.542;2023-06-19T10:03:29;6.53;;;4.70;;
73382;SDS011;61600;48.126;11.542;2023-06-19T10:05:58;6.47;;;4.60;;
73382;SDS011;61600;48.126;11.542;2023-06-19T10:08:26;7.60;;;4.93;;
73382;SDS011;61600;48.126;11.542;2023-06-19T10:10:54;10.45;;;7.25;;
73382;SDS011;61600;48.126;11.542;2023-06-19T10:13:20;11.85;;;7.65;;
73382;SDS011;61600;48.126;11.542;2023-06-19T10:15:46;7.60;;;5.35;;
73382;SDS011;61600;48.126;11.542;2023-06-19T10:18:17;9.15;;;4.72;;
73382;SDS011;61600;48.126;11.542;2023-06-19T10:20:44;10.77;;;7.65;;
73382;SDS011;61600;48.126;11.542;2023-06-19T10:23:12;24.65;;;17.08;;
73382;SDS011;61600;48.126;11.542;2023-06-19T10:25:47;13.73;;;8.82;;
73382;SDS011;61600;48.126;11.542;2023-06-19T10:28:24;6.13;;;4.43;;
73382;SDS011;61600;48.126;11.542;2023-06-19T10:30:55;6.28;;;4.20;;
73382;SDS011;61600;48.126;11.542;2023-06-19T10:33:29;6.93;;;4.80;;
73382;SDS011;61600;48.126;11.542;2023-06-19T10:35:58;7.75;;;4.63;;
73382;SDS011;61600;48.126;11.542;2023-06-19T10:38:28;7.00;;;4.38;;
73382;SDS011;61600;48.126;11.542;2023-06-19T10:40:54;10.20;;;4.97;;
73382;SDS011;61600;48.126;11.542;2023-06-19T10:45:46;10.57;;;4.70;;
73382;SDS011;61600;48.126;11.542;2023-06-19T10:50:43;10.38;;;5.05;;
73382;SDS011;61600;48.126;11.542;2023-06-19T10:55:35;8.02;;;3.95;;
73382;SDS011;61600;48.126;11.542;2023-06-19T11:00:28;4.53;;;3.67;;
73382;SDS011;61600;48.126;11.542;2023-06-19T11:02:56;6.05;;;3.50;;
73382;SDS011;61600;48.126;11.542;2023-06-19T11:05:23;5.38;;;4.07;;
73382;SDS011;61600;48.126;11.542;2023-06-19T11:07:51;4.28;;;3.30;;
73382;SDS011;61600;48.126;11.542;2023-06-19T11:10:24;14.75;;;4.20;;
73382;SDS011;61600;48.126;11.542;2023-06-19T11:12:58;8.88;;;3.80;;
73382;SDS011;61600;48.126;11.542;2023-06-19T11:15:30;5.30;;;3.20;;
73382;SDS011;61600;48.126;11.542;2023-06-19T11:17:57;7.30;;;4.00;;
73382;SDS011;61600;48.126;11.542;2023-06-19T11:20:24;6.82;;;3.72;;
73382;SDS011;61600;48.126;11.542;2023-06-19T11:22:54;8.55;;;4.43;;
73382;SDS011;61600;48.126;11.542;2023-06-19T11:25:36;4.90;;;3.33;;
73382;SDS011;61600;48.126;11.542;2023-06-19T11:28:12;6.72;;;3.42;;
73382;SDS011;61600;48.126;11.542;2023-06-19T11:30:47;6.38;;;3.60;;
73382;SDS011;61600;48.126;11.542;2023-06-19T11:33:18;7.25;;;3.50;;
73382;SDS011;61600;48.126;11.542;2023-06-19T11:35:49;3.65;;;2.72;;
73382;SDS011;61600;48.126;11.542;2023-06-19T11:38:16;5.28;;;3.20;;
73382;SDS011;61600;48.126;11.542;2023-06-19T11:40:43;4.05;;;2.80;;
73382;SDS011;61600;48.126;11.542;2023-06-19T11:43:11;4.22;;;3.30;;
73382;SDS011;61600;48.126;11.542;2023-06-19T11:45:49;5.00;;;2.83;;
73382;SDS011;61600;48.126;11.542;2023-06-19T11:48:24;4.90;;;2.92;;
73382;SDS011;61600;48.126;11.542;2023-06-19T11:50:51;5.75;;;3.10;;
73382;SDS011;61600;48.126;11.542;2023-06-19T11:53:22;7.97;;;2.92;;
73382;SDS011;61600;48.126;11.542;2023-06-19T11:55:49;6.28;;;2.80;;
73382;SDS011;61600;48.126;11.542;2023-06-19T11:58:15;5.38;;;2.65;;
73382;SDS011;61600;48.126;11.542;2023-06-19T12:00:42;4.35;;;2.83;;
73382;SDS011;61600;48.126;11.542;2023-06-19T12:03:08;7.38;;;3.05;;
73382;SDS011;61600;48.126;11.542;2023-06-19T12:05:35;11.60;;;3.17;;
73382;SDS011;61600;48.126;11.542;2023-06-19T12:08:02;5.15;;;3.00;;
73382;SDS011;61600;48.126;11.542;2023-06-19T12:10:30;6.00;;;3.13;;
73382;SDS011;61600;48.126;11.542;2023-06-19T12:12:56;4.38;;;2.72;;
73382;SDS011;61600;48.126;11.542;2023-06-19T12:15:22;4.00;;;3.15;;
73382;SDS011;61600;48.126;11.542;2023-06-19T12:17:50;8.65;;;4.25;;
73382;SDS011;61600;48.126;11.542;2023-06-19T12:20:17;4.53;;;2.97;;
73382;SDS011;61600;48.126;11.542;2023-06-19T12:22:43;8.55;;;2.92;;
73382;SDS011;61600;48.126;11.542;2023-06-19T12:25:09;7.82;;;3.30;;
73382;SDS011;61600;48.126;11.542;2023-06-19T12:27:37;3.72;;;2.70;;
73382;SDS011;61600;48.126;11.542;2023-06-19T12:30:03;4.03;;;2.42;;
73382;SDS011;61600;48.126;11.542;2023-06-19T12:32:29;5.20;;;3.33;;
73382;SDS011;61600;48.126;11.542;2023-06-19T12:34:55;4.90;;;2.80;;
73382;SDS011;61600;48.126;11.542;2023-06-19T12:39:47;3.60;;;2.35;;
73382;SDS011;61600;48.126;11.542;2023-06-19T12:42:15;4.07;;;2.55;;
73382;SDS011;61600;48.126;11.542;2023-06-19T12:44:41;4.18;;;2.80;;
73382;SDS011;61600;48.126;11.542;2023-06-19T12:47:10;5.30;;;2.78;;
73382;SDS011;61600;48.126;11.542;2023-06-19T12:49:36;3.92;;;2.95;;
73382;SDS011;61600;48.126;11.542;2023-06-19T12:52:02;4.13;;;2.47;;
73382;SDS011;61600;48.126;11.542;2023-06-19T12:54:28;3.97;;;2.42;;
73382;SDS011;61600;48.126;11.542;2023-06-19T12:56:54;5.57;;;3.00;;
73382;SDS011;61600;48.126;11.542;2023-06-19T12:59:20;6.07;;;2.88;;
73382;SDS011;61600;48.126;11.542;2023-06-19T13:01:47;5.63;;;3.20;;
73382;SDS011;61600;48.126;11.542;2023-06-19T13:04:13;6.22;;;3.20;;
73382;SDS011;61600;48.126;11.542;2023-06-19T13:06:39;4.43;;;2.92;;
73382;SDS011;61600;48.126;11.542;2023-06-19T13:09:05;6.18;;;3.63;;
73382;SDS011;61600;48.126;11.542;2023-06-19T13:11:31;3.47;;;2.70;;
73382;SDS011;61600;48.126;11.542;2023-06-19T13:13:57;3.97;;;3.00;;
73382;SDS011;61600;48.126;11.542;2023-06-19T13:16:23;4.05;;;3.00;;
73382;SDS011;61600;48.126;11.542;2023-06-19T13:18:51;4.93;;;2.83;;
73382;SDS011;61600;48.126;11.542;2023-06-19T13:21:19;5.35;;;3.25;;
73382;SDS011;61600;48.126;11.542;2023-06-19T13:23:45;5.25;;;3.00;;
73382;SDS011;61600;48.126;11.542;2023-06-19T13:26:11;4.65;;;3.17;;
73382;SDS011;61600;48.126;11.542;2023-06-19T13:28:37;5.50;;;2.90;;
73382;SDS011;61600;48.126;11.542;2023-06-19T13:31:03;3.72;;;2.88;;
73382;SDS011;61600;48.126;11.542;2023-06-19T13:33:29;9.13;;;3.35;;
73382;SDS011;61600;48.126;11.542;2023-06-19T13:35:55;6.70;;;3.33;;
73382;SDS011;61600;48.126;11.542;2023-06-19T13:38:21;4.90;;;2.60;;
73382;SDS011;61600;48.126;11.542;2023-06-19T13:40:47;5.32;;;3.10;;
73382;SDS011;61600;48.126;11.542;2023-06-19T13:43:13;8.32;;;2.97;;
73382;SDS011;61600;48.126;11.542;2023-06-19T13:45:39;3.90;;;2.63;;
73382;SDS011;61600;48.126;11.542;2023-06-19T13:48:06;4.97;;;2.83;;
73382;SDS011;61600;48.126;11.542;2023-06-19T13:50:32;4.53;;;3.10;;
73382;SDS011;61600;48.126;11.542;2023-06-19T13:52:58;4.55;;;2.88;;
73382;SDS011;61600;48.126;11.542;2023-06-19T13:55:25;3.60;;;2.65;;
73382;SDS011;61600;48.126;11.542;2023-06-19T13:57:51;4.20;;;2.88;;
73382;SDS011;61600;48.126;11.542;2023-06-19T14:00:19;3.92;;;2.58;;
73382;SDS011;61600;48.126;11.542;2023-06-19T14:02:45;5.60;;;2.70;;
73382;SDS011;61600;48.126;11.542;2023-06-19T14:05:11;5.05;;;2.85;;
73382;SDS011;61600;48.126;11.542;2023-06-19T14:07:40;8.60;;;3.58;;
73382;SDS011;61600;48.126;11.542;2023-06-19T14:10:06;4.32;;;3.00;;
73382;SDS011;61600;48.126;11.542;2023-06-19T14:12:32;6.43;;;2.70;;
73382;SDS011;61600;48.126;11.542;2023-06-19T14:14:58;6.45;;;2.75;;
73382;SDS011;61600;48.126;11.542;2023-06-19T14:17:24;4.90;;;2.65;;
73382;SDS011;61600;48.126;11.542;2023-06-19T14:19:49;5.68;;;2.55;;
73382;SDS011;61600;48.126;11.542;2023-06-19T14:22:16;5.47;;;2.80;;
73382;SDS011;61600;48.126;11.542;2023-06-19T14:24:42;7.40;;;2.90;;
73382;SDS011;61600;48.126;11.542;2023-06-19T14:27:08;4.18;;;3.10;;
73382;SDS011;61600;48.126;11.542;2023-06-19T14:29:34;3.63;;;2.65;;
73382;SDS011;61600;48.126;11.542;2023-06-19T14:32:00;5.20;;;3.00;;
73382;SDS011;61600;48.126;11.542;2023-06-19T14:34:25;4.90;;;2.83;;
73382;SDS011;61600;48.126;11.542;2023-06-19T14:36:51;9.27;;;3.13;;
73382;SDS011;61600;48.126;11.542;2023-06-19T14:39:17;4.07;;;3.13;;
73382;SDS011;61600;48.126;11.542;2023-06-19T14:41:43;3.80;;;2.70;;
73382;SDS011;61600;48.126;11.542;2023-06-19T14:44:08;3.75;;;2.55;;
73382;SDS011;61600;48.126;11.542;2023-06-19T14:46:34;5.05;;;3.38;;
73382;SDS011;61600;48.126;11.542;2023-06-19T14:49:06;4.97;;;2.85;;
73382;SDS011;61600;48.126;11.542;2023-06-19T14:51:32;5.63;;;2.60;;
73382;SDS011;61600;48.126;11.542;2023-06-19T14:53:58;5.32;;;2.95;;
73382;SDS011;61600;48.126;11.542;2023-06-19T14:56:25;6.03;;;3.05;;
73382;SDS011;61600;48.126;11.542;2023-06-19T14:58:50;3.50;;;2.80;;
73382;SDS011;61600;48.126;11.542;2023-06-19T15:01:16;3.95;;;3.33;;